Santa Maria Pub/Capt G Allan Hancock Field
KSMX : now visible

Airfield :











YOU CAN JOIN US ON...

 
LOGIN :

Register | Disclaimer

   EN    FR    IT 

 









Legend :    VFR   Marginal VFR   IFR   Intensive IFR   Very Intensive IFR
Visi :
Ceiling :
>= 8 km
>= 3000ft
5 to 8 km
1000 to 3000 ft
1500m to 5 km
500 to 1000 ft
800 to 1500m
200 to 500 ft
< 800m
< 200 ft
Symbols :   Thunderstorms  Fog  Heavy snow  Heavy precipitations  Wind > 20 kt






- Airport Elevation : 261 ft
- IATA code : SMX


KSMX - Santa Maria Pub/Capt G Allan Hancock Field

CURRENT METAR :
  • 171451Z 00000KT 10SM CLR 02/01 A3023 RMK AO2 SLP242 T00220006 53008 $

EXPIRED METARs :
  • 171351Z AUTO 13003KT 10SM CLR 02/01 A3022 RMK AO2 SLP238 T00220011 TSNO $
  • 171251Z AUTO 00000KT 8SM R12/6000VP6000FT CLR 03/01 A3020 RMK AO2 SLP233 T00280011 TSNO $

TAF KSMX
Valid from the 17 at 12:00 until the 18 at 12:00 UTC


171133Z 1712/1812 VRB03KT P6SM BKN200
FM171900 32010KT P6SM BKN200
FM180300 VRB03KT P6SM SCT200



MET'MAP, your aeronautical weather chart ! - Copyright ORBIFLY December 2007 - Disclaimer

ORBIFLY MET'MAP TEAM :

Programming & Development : Alexandra Zaïnal
Concept & original design : Baudouin d'Aumeries
Assistance for programming : Marc-Olivier Méhu
Technical & hardware support : Manuel Goepfert

Contact : metmap@orbifly.com




SOURCES & CREDITS :

   NOAA       Earth
Advisory